16. August 2022

Uhrzeit Code Wetter Temp. Sichtweite Wolkendecke Wind METAR/SPECI
15:20
V
30 °C 10 km+ - 240° 240° 7 kt METAR EDLW 161320Z 24007KT 210V310 CAVOK 30/12 Q1009
14:50
V
29 °C 10 km+ - 270° 270° 6 kt METAR EDLW 161250Z 27006KT 220V340 CAVOK 29/12 Q1008
14:20
V
29 °C 10 km+ - 250° 250° 6 kt METAR EDLW 161220Z 25006KT 150V300 CAVOK 29/12 Q1008
13:50
V
29 °C 10 km+ - 250° 250° 7 kt METAR EDLW 161150Z 25007KT 200V300 CAVOK 29/13 Q1009
13:20
V
28 °C 10 km+ - 220° 220° 7 kt METAR EDLW 161120Z 22007KT 170V330 CAVOK 28/14 Q1008
12:50
V
27 °C 10 km+ - 250° 250° 6 kt METAR EDLW 161050Z 25006KT 200V320 9999 FEW048 27/13 Q1008
12:20
V
27 °C 10 km+ - 230° 230° 6 kt METAR EDLW 161020Z 23006KT 180V330 CAVOK 27/14 Q1008
11:50
V
27 °C 10 km+ - Var Var 3 kt METAR EDLW 160950Z VRB03KT CAVOK 27/15 Q1008
11:20
V
26 °C 10 km+ - 220° 220° 4 kt METAR EDLW 160920Z 22004KT 160V310 CAVOK 26/15 Q1008
10:50
V
25 °C 10 km+ - 240° 240° 6 kt METAR EDLW 160850Z 24006KT CAVOK 25/15 Q1008
10:20
V
24 °C 10 km+ - 240° 240° 6 kt METAR EDLW 160820Z 24006KT 200V280 CAVOK 24/15 Q1008
09:50
V
23 °C 10 km+ - 210° 210° 7 kt METAR EDLW 160750Z 21007KT CAVOK 23/15 Q1008
09:20
V
22 °C 10 km+ - 230° 230° 7 kt METAR EDLW 160720Z 23007KT CAVOK 22/15 Q1008
08:50
V
22 °C 10 km+ - 200° 200° 8 kt METAR EDLW 160650Z 20008KT CAVOK 22/15 Q1007
08:20
V
20 °C 10 km+ - 190° 190° 9 kt METAR EDLW 160620Z 19009KT CAVOK 20/14 Q1007
07:50
V
20 °C 10 km+ - 190° 190° 9 kt METAR EDLW 160550Z 19009KT CAVOK 20/14 Q1007
07:20
V
19 °C 10 km+ - 190° 190° 8 kt METAR EDLW 160520Z 19008KT CAVOK 19/14 Q1007
06:50
V
18 °C 10 km+ - 190° 190° 8 kt METAR EDLW 160450Z 19008KT CAVOK 18/14 Q1007
06:20
V
19 °C 10 km+ - 190° 190° 8 kt METAR EDLW 160420Z 19008KT CAVOK 19/14 Q1007
05:50
V
18 °C 10 km+ - 190° 190° 8 kt METAR EDLW 160350Z 19008KT CAVOK 18/14 Q1007
05:20
V
19 °C 10 km+ - 190° 190° 8 kt METAR EDLW 160320Z 19008KT CAVOK 19/14 Q1006
04:50
V
19 °C 10 km+ - 180° 180° 7 kt METAR EDLW 160250Z AUTO 18007KT 9999 // NCD 19/14 Q1006
04:20
V
19 °C 10 km+ - 190° 190° 8 kt METAR EDLW 160220Z AUTO 19008KT 9999 // NCD 19/14 Q1006
03:50
V
18 °C 10 km+ - 180° 180° 8 kt METAR EDLW 160150Z AUTO 18008KT 9999 // NCD 18/14 Q1006
03:20
V
19 °C 10 km+ - 180° 180° 8 kt METAR EDLW 160120Z AUTO 18008KT 9999 // NCD 19/14 Q1007
02:50
V
19 °C 10 km+ - 160° 160° 6 kt METAR EDLW 160050Z AUTO 16006KT 9999 // NCD 19/14 Q1007
02:20
V
18 °C 10 km+ - 160° 160° 6 kt METAR EDLW 160020Z AUTO 16006KT 9999 // NCD 18/14 Q1006
01:50
V
19 °C 10 km+ - 160° 160° 6 kt METAR EDLW 152350Z AUTO 16006KT 9999 // NCD 19/14 Q1006
01:20
V
19 °C 10 km+ - 160° 160° 6 kt METAR EDLW 152320Z AUTO 16006KT 9999 // FEW100/// 19/14 Q1006
00:50
V
19 °C 10 km+ 10.000 ft 170° 170° 5 kt METAR EDLW 152250Z AUTO 17005KT 9999 // BKN100/// 19/14 Q1006
00:20
V
20 °C 10 km+ 10.000 ft 160° 160° 4 kt METAR EDLW 152220Z AUTO 16004KT 9999 // FEW087/// BKN100/// 20/14 Q1006

15. August 2022

Uhrzeit Code Wetter Temp. Sichtweite Wolkendecke Wind METAR/SPECI
23:50
V
21 °C 10 km+ 11.000 ft 170° 170° 4 kt METAR EDLW 152150Z AUTO 17004KT 9999 // SCT087/// OVC110/// 21/14 Q1006
23:20
V
21 °C 10 km+ 8.300 ft 190° 190° 5 kt METAR EDLW 152120Z AUTO 19005KT 9999 // FEW061/// BKN083/// BKN110/// 21/14 Q1006
22:50
V
21 °C 10 km+ - 180° 180° 4 kt METAR EDLW 152050Z 18004KT CAVOK 21/14 Q1006
22:20
V
21 °C 10 km+ - 200° 200° 4 kt METAR EDLW 152020Z 20004KT CAVOK 21/14 Q1006
21:50
V
21 °C 10 km+ - 180° 180° 3 kt METAR EDLW 151950Z 18003KT CAVOK 21/14 Q1006
21:20
V
21 °C 10 km+ - 180° 180° 4 kt METAR EDLW 151920Z 18004KT CAVOK 21/14 Q1006
20:50
V
22 °C 10 km+ - 220° 220° 5 kt METAR EDLW 151850Z 22005KT CAVOK 22/14 Q1005
20:20
V
22 °C 10 km+ - 230° 230° 4 kt METAR EDLW 151820Z 23004KT CAVOK 22/13 Q1005
19:50
V
24 °C 10 km+ - 230° 230° 5 kt METAR EDLW 151750Z 23005KT CAVOK 24/14 Q1005
19:20
V
24 °C 10 km+ - 230° 230° 8 kt METAR EDLW 151720Z 23008KT CAVOK 24/14 Q1005
18:50
V
25 °C 10 km+ - 230° 230° 9 kt METAR EDLW 151650Z 23009KT CAVOK 25/13 Q1005
18:20
V
25 °C 10 km+ - 240° 240° 7 kt METAR EDLW 151620Z 24007KT 190V290 CAVOK 25/14 Q1005
17:50
V
26 °C 10 km+ - 240° 240° 9 kt METAR EDLW 151550Z 24009KT 210V320 CAVOK 26/15 Q1005
17:20
V
25 °C 10 km+ - 240° 240° 10 kt METAR EDLW 151520Z 24010KT CAVOK 25/15 Q1005
16:50
V
24 °C 10 km+ - 240° 240° 11 kt METAR EDLW 151450Z 24011KT 220V280 CAVOK 24/15 Q1005
16:20
V
25 °C 10 km+ - 240° 240° 9 kt METAR EDLW 151420Z 24009KT 220V280 CAVOK 25/15 Q1005
15:50
V
25 °C 10 km+ - 230° 230° 9 kt METAR EDLW 151350Z 23009KT CAVOK 25/15 Q1005
15:20
V
25 °C 10 km+ - 230° 230° 9 kt METAR EDLW 151320Z 23009KT CAVOK 25/15 Q1005
14:50
V
25 °C 10 km+ - 220° 220° 9 kt METAR EDLW 151250Z 22009KT 9999 FEW044 25/14 Q1005
14:20
V
26 °C 10 km+ - 240° 240° 7 kt METAR EDLW 151220Z 24007KT 210V270 CAVOK 26/14 Q1005
13:50
V
26 °C 10 km+ - 230° 230° 7 kt METAR EDLW 151150Z 23007KT CAVOK 26/14 Q1005
13:20
V
26 °C 10 km+ - 250° 250° 6 kt METAR EDLW 151120Z 25006KT 220V330 CAVOK 26/14 Q1005
12:50
V
26 °C 10 km+ - 230° 230° 7 kt METAR EDLW 151050Z 23007KT 200V260 CAVOK 26/14 Q1005
12:20
V
25 °C 10 km+ - 230° 230° 9 kt METAR EDLW 151020Z 23009KT 180V270 CAVOK 25/14 Q1004
11:50
V
26 °C 10 km+ - 240° 240° 10 kt METAR EDLW 150950Z 24010KT 200V280 CAVOK 26/15 Q1004
11:20
V
24 °C 10 km+ - 240° 240° 9 kt METAR EDLW 150920Z 24009KT 230V290 CAVOK 24/15 Q1004
10:50
V
23 °C 10 km+ - 240° 240° 12 kt METAR EDLW 150850Z 24012KT CAVOK 23/14 Q1004
10:20
V
23 °C 10 km+ - 220° 220° 10 kt METAR EDLW 150820Z 22010KT 200V260 CAVOK 23/13 Q1004
09:50
V
23 °C 10 km+ - 190° 190° 8 kt METAR EDLW 150750Z 19008KT CAVOK 23/14 Q1004
09:20
V
23 °C 10 km+ - 180° 180° 6 kt METAR EDLW 150720Z 18006KT 140V200 CAVOK 23/14 Q1004
08:50
V
21 °C 10 km+ - 220° 220° 9 kt METAR EDLW 150650Z 22009KT 9999 FEW014 SCT022 21/14 Q1004
08:20
V
22 °C 10 km+ - 230° 230° 8 kt METAR EDLW 150620Z 23008KT 9999 FEW021 22/13 Q1004
07:50
V
22 °C 10 km+ - 170° 170° 8 kt METAR EDLW 150550Z 17008KT CAVOK 22/13 Q1004
07:20
V
22 °C 10 km+ - 160° 160° 6 kt METAR EDLW 150520Z 16006KT CAVOK 22/13 Q1003
06:50
V
21 °C 10 km+ - 190° 190° 5 kt METAR EDLW 150450Z 19005KT CAVOK 21/12 Q1003
06:20
V
21 °C 10 km+ - 210° 210° 8 kt METAR EDLW 150420Z 21008KT CAVOK 21/13 Q1003
05:50
V
20 °C 10 km+ - 190° 190° 7 kt METAR EDLW 150350Z 19007KT CAVOK 20/14 Q1003
05:20
V
21 °C 10 km+ - 170° 170° 4 kt METAR EDLW 150320Z 17004KT CAVOK 21/14 Q1003
04:50
V
22 °C 10 km+ 9.000 ft 190° 190° 6 kt METAR EDLW 150250Z AUTO 19006KT 9999 // BKN090/// 22/14 Q1004
04:20
V
24 °C 10 km+ 11.000 ft 120° 120° 5 kt METAR EDLW 150220Z AUTO 12005KT 9999 // FEW088/// BKN110/// 24/14 Q1003
03:50
V
23 °C 10 km+ 9.300 ft 110° 110° 5 kt METAR EDLW 150150Z AUTO 11005KT 9999 // BKN093/// 23/14 Q1003
03:20
V
24 °C 10 km+ 11.000 ft 060° 060° 5 kt METAR EDLW 150120Z AUTO 06005KT 9999 // FEW089/// BKN110/// 24/14 Q1004
02:50
V
24 °C 10 km+ 9.300 ft 120° 120° 9 kt METAR EDLW 150050Z AUTO 12009KT 9999 // BKN093/// 24/14 Q1004
02:20
V
23 °C 10 km+ - 130° 130° 7 kt METAR EDLW 150020Z AUTO 13007KT 9999 // FEW075/// SCT100/// 23/14 Q1004
01:50
V
23 °C 10 km+ - 140° 140° 6 kt METAR EDLW 142350Z AUTO 14006KT 9999 // NCD 23/14 Q1004
01:20
V
23 °C 10 km+ - 160° 160° 6 kt METAR EDLW 142320Z AUTO 16006KT 9999 // NCD 23/14 Q1004
00:50
V
24 °C 10 km+ - 150° 150° 6 kt METAR EDLW 142250Z AUTO 15006KT 9999 // NCD 24/14 Q1004
00:20
V
23 °C 10 km+ - 140° 140° 5 kt METAR EDLW 142220Z AUTO 14005KT 9999 // NCD 23/14 Q1004

14. August 2022

Uhrzeit Code Wetter Temp. Sichtweite Wolkendecke Wind METAR/SPECI
23:50
V
23 °C 10 km+ - 140° 140° 6 kt METAR EDLW 142150Z AUTO 14006KT 9999 // NCD 23/14 Q1005
23:20
V
24 °C 10 km+ - 130° 130° 5 kt METAR EDLW 142120Z AUTO 13005KT 9999 // NCD 24/14 Q1005
22:50
V
24 °C 10 km+ - 070° 070° 2 kt METAR EDLW 142050Z 07002KT CAVOK 24/16 Q1005
22:20
V
24 °C 10 km+ - Var 000° 0 kt METAR EDLW 142020Z 00000KT CAVOK 24/16 Q1005
21:50
V
24 °C 10 km+ 8.500 ft Var Var 1 kt METAR EDLW 141950Z VRB01KT 9999 VCTS BKN085CB 24/16 Q1005
21:20
V
26 °C 10 km+ - Var Var 2 kt METAR EDLW 141920Z VRB02KT CAVOK 26/15 Q1005
20:50
V
27 °C 10 km+ - Var 000° 0 kt METAR EDLW 141850Z 00000KT CAVOK 27/14 Q1005
20:20
V
28 °C 10 km+ - 110° 110° 5 kt METAR EDLW 141820Z 11005KT 080V150 CAVOK 28/14 Q1005
19:50
V
29 °C 10 km+ - 090° 090° 3 kt METAR EDLW 141750Z 09003KT 060V120 CAVOK 29/16 Q1004
19:20
V
31 °C 10 km+ - 110° 110° 4 kt METAR EDLW 141720Z 11004KT 060V210 CAVOK 31/12 Q1005
18:50
V
32 °C 10 km+ - 040° 040° 3 kt METAR EDLW 141650Z 04003KT 280V080 CAVOK 32/13 Q1005
18:20
V
32 °C 10 km+ - 030° 030° 3 kt METAR EDLW 141620Z 03003KT 300V090 CAVOK 32/14 Q1005
17:50
V
31 °C 10 km+ - Var Var 3 kt METAR EDLW 141550Z VRB03KT CAVOK 31/14 Q1005
17:20
V
31 °C 10 km+ - 040° 040° 5 kt METAR EDLW 141520Z 04005KT 310V110 CAVOK 31/14 Q1006
16:50
V
32 °C 10 km+ - Var Var 4 kt METAR EDLW 141450Z VRB04KT CAVOK 32/13 Q1006
16:20
V
31 °C 10 km+ - 050° 050° 8 kt METAR EDLW 141420Z 05008KT 010V100 CAVOK 31/14 Q1006
15:50
V
30 °C 10 km+ - 080° 080° 6 kt METAR EDLW 141350Z 08006KT 350V140 CAVOK 30/15 Q1006
Ältere Daten

Wir und Dritte verfolgen dein Internetverhalten auf unserer Website mit Cookies. Wenn du fortfährst, gehen wir davon aus, dass du mit unserer Cookie-Richtlinie einverstanden bist. Mehr erfahren